Los Coyotes (210) Station Data

Red Flag Warning: No
Fire Weather Zone: 258
SDGE Region: Ramona
Lat/Lon: 33.258/-116.585

Observations

Time Wind Speed/Gust Temp(F) RH Fuel Moist Fuel Temp(F) Dewpt(F) Tmax(F) Tmin(F) Accum Precip 10-min Precip SL Press(mb)
6/22 5:00am 20 2 G 4 74° 10% - - 14° 78.7° 72.5° - - -
6/22 4:50am 3 2 G 6 73° 10% - - 14° 78.7° 72.9° - - -
6/22 4:40am 16 2 G 4 74° 10% - - 14° 78.7° 73° - - -
6/22 4:30am 5 1 G 3 75° 10% - - 14° 78.7° 73° - - -
6/22 4:20am 19 1 G 3 74° 10% - - 14° 78.7° 73° - - -
6/22 4:10am 12 2 G 4 75° 10% - - 15° 78.7° 73° - - -
6/22 4:00am 31 2 G 4 75° 10% - - 16° 78.7° 73° - - -
6/22 3:50am 7 2 G 4 75° 11% - - 17° 78.7° 73° - - -
6/22 3:40am 340 1 G 2 75° 11% - - 16° 78.7° 73° - - -
6/22 3:30am 347 1 G 2 76° 10% - - 16° 78.7° 73° - - -
6/22 3:20am 14 1 G 4 75° 11% - - 16° 78.7° 73° - - -
6/22 3:10am 29 2 G 5 75° 11% - - 17° 78.7° 73° - - -
6/22 3:00am 5 2 G 4 75° 11% - - 17° 78.7° 73° - - -
6/22 2:50am 38 2 G 4 75° 11% - - 18° 78.7° 73° - - -
6/22 2:40am 354 2 G 3 75° 11% - - 18° 78.7° 73° - - -
6/22 2:30am 355 2 G 4 74° 12% - - 18° 78.7° 73° - - -
6/22 2:20am 14 3 G 5 75° 12% - - 19° 78.7° 73.2° - - -
6/22 2:10am 356 2 G 4 75° 12% - - 19° 78.7° 73.2° - - -
6/22 2:00am 359 3 G 5 75° 12% - - 19° 78.7° 73.2° - - -
6/22 1:50am 17 2 G 6 75° 12% - - 20° 78.7° 73.7° - - -
6/22 1:40am 358 3 G 6 75° 12% - - 20° 78.7° 73.7° - - -
6/22 1:30am 22 2 G 4 75° 13% - - 20° 78.7° 73.7° - - -
6/22 1:20am 12 1 G 3 75° 13% - - 21° 78.7° 74.5° - - -
6/22 1:10am 19 2 G 4 75° 13% - - 22° 78.7° 74.5° - - -
6/22 1:00am 52 3 G 5 75° 13% - - 22° 78.7° 74.5° - - -
6/22 12:50am 120 1 G 4 75° 14% - - 23° 78.7° 74.5° - - -
6/22 12:40am 6 1 G 4 76° 14% - - 23° 78.7° 74.5° - - -
6/22 12:30am 6 3 G 6 77° 14% - - 24° 78.7° 75.3° - - -
6/22 12:20am 4 3 G 5 76° 15% - - 25° 78.7° 75.3° - - -
6/22 12:10am 22 2 G 5 78° 15% - - 27° 78.7° 76.2° - - -
6/22 12:00am 357 2 G 5 77° 18% - - 30° 97.6° 72.8° - - -
6/21 11:50pm 101 1 G 5 77° 18% - - 30° 97.6° 72.8° - - -
6/21 11:40pm 360 3 G 6 78° 16% - - 29° 97.6° 72.8° - - -
6/21 11:30pm 6 3 G 5 77° 18% - - 30° 97.6° 72.8° - - -
6/21 11:20pm 15 2 G 5 75° 26% - - 38° 97.6° 72.8° - - -
6/21 11:10pm 2 3 G 5 75° 28% - - 39° 97.6° 72.8° - - -
6/21 11:00pm 358 2 G 5 76° 26% - - 38° 97.6° 72.8° - - -
6/21 10:50pm 5 2 G 5 76° 26% - - 39° 97.6° 72.8° - - -
6/21 10:40pm 9 4 G 6 75° 28% - - 39° 97.6° 72.8° - - -
6/21 10:30pm 15 3 G 5 76° 28% - - 40° 97.6° 72.8° - - -
6/21 10:20pm 15 2 G 4 76° 29% - - 41° 97.6° 72.8° - - -
6/21 10:10pm 23 1 G 3 76° 28% - - 41° 97.6° 72.8° - - -
6/21 10:00pm 28 3 G 4 77° 29% - - 42° 97.6° 72.8° - - -
6/21 9:50pm 33 2 G 3 77° 30% - - 43° 97.6° 72.8° - - -
6/21 9:40pm 12 3 G 5 77° 30% - - 43° 97.6° 72.8° - - -
6/21 9:30pm 7 3 G 4 77° 31% - - 44° 97.6° 72.8° - - -
6/21 9:20pm 18 3 G 4 76° 33% - - 45° 97.6° 72.8° - - -
6/21 9:10pm 5 4 G 5 77° 33% - - 45° 97.6° 72.8° - - -
6/21 9:00pm 12 3 G 5 78° 33% - - 47° 97.6° 72.8° - - -
6/21 8:50pm 10 2 G 4 78° 36% - - 49° 97.6° 72.8° - - -
6/21 8:40pm 57 2 G 4 78° 36% - - 49° 97.6° 72.8° - - -
6/21 8:30pm 225 2 G 4 79° 34% - - 49° 97.6° 72.8° - - -
6/21 8:20pm 291 4 G 6 80° 35% - - 50° 97.6° 72.8° - - -
6/21 8:10pm 292 3 G 5 81° 35% - - 50° 97.6° 72.8° - - -
6/21 8:00pm 299 3 G 5 81° 34% - - 51° 97.6° 72.8° - - -
6/21 7:50pm 288 4 G 5 82° 33% - - 50° 97.6° 72.8° - - -
6/21 7:40pm 280 4 G 6 83° 32% - - 50° 97.6° 72.8° - - -
6/21 7:30pm 277 4 G 7 84° 31% - - 50° 97.6° 72.8° - - -
6/21 7:20pm 278 4 G 7 85° 31% - - 51° 97.6° 72.8° - - -
6/21 7:10pm 271 5 G 7 86° 30% - - 51° 97.6° 72.8° - - -
6/21 7:00pm 263 6 G 10 87° 29% - - 51° 97.6° 72.8° - - -
6/21 6:50pm 267 6 G 9 87° 28% - - 50° 97.6° 72.8° - - -
6/21 6:40pm 285 5 G 8 88° 26% - - 49° 97.6° 72.8° - - -
6/21 6:30pm 279 5 G 9 89° 22% - - 45° 97.6° 72.8° - - -
6/21 6:20pm 269 5 G 12 89° 23% - - 47° 97.6° 72.8° - - -
6/21 6:10pm 274 6 G 10 90° 23% - - 47° 97.6° 72.8° - - -
6/21 6:00pm 260 6 G 12 91° 22% - - 46° 97.6° 72.8° - - -
6/21 5:50pm 258 6 G 12 91° 20% - - 45° 97.6° 72.8° - - -
6/21 5:40pm 251 7 G 13 92° 17% - - 41° 97.6° 72.8° - - -
6/21 5:30pm 262 6 G 11 93° 14% - - 37° 97.6° 72.8° - - -
6/21 5:20pm 256 7 G 14 93° 13% - - 35° 97.6° 72.8° - - -
6/21 5:10pm 265 7 G 12 94° 13% - - 35° 97.6° 72.8° - - -
6/21 5:00pm 267 6 G 13 94° 12% - - 34° 97.6° 72.8° - - -
6/21 4:50pm 261 6 G 13 94° 11% - - 32° 97.6° 72.8° - - -
6/21 4:40pm 260 7 G 14 94° 11% - - 31° 97.6° 72.8° - - -
6/21 4:30pm 261 7 G 14 95° 10% - - 29° 97.6° 72.8° - - -
6/21 4:20pm 249 6 G 13 96° 9% - - 29° 97.6° 72.8° - - -
6/21 4:10pm 252 7 G 14 95° 8% - - 26° 97.6° 72.8° - - -
6/21 4:00pm 251 6 G 12 95° 9% - - 28° 97.6° 72.8° - - -
6/21 3:50pm 269 8 G 14 96° 9% - - 27° 97.6° 72.8° - - -
6/21 3:40pm 260 7 G 13 95° 10% - - 30° 97.6° 72.8° - - -
6/21 3:30pm 251 6 G 14 96° 9% - - 29° 97.6° 72.8° - - -
6/21 3:20pm 257 7 G 15 95° 10% - - 29° 97.6° 72.8° - - -
6/21 3:10pm 262 8 G 17 95° 9% - - 28° 97.6° 72.8° - - -
6/21 3:00pm 266 7 G 14 95° 9% - - 27° 97.6° 72.8° - - -
6/21 2:50pm 253 6 G 15 96° 8% - - 26° 97.6° 72.8° - - -
6/21 2:40pm 252 7 G 15 96° 8% - - 26° 97.6° 72.8° - - -
6/21 2:30pm 247 6 G 14 97° 8% - - 25° 97.6° 72.8° - - -
6/21 2:20pm 246 6 G 16 96° 8% - - 26° 97.6° 72.8° - - -
6/21 2:10pm 239 7 G 14 97° 8% - - 26° 97.5° 72.8° - - -
6/21 2:00pm 257 8 G 17 96° 8% - - 25° 97.5° 72.8° - - -
6/21 1:50pm 247 7 G 16 96° 8% - - 26° 97.5° 72.8° - - -
6/21 1:40pm 244 7 G 15 96° 8% - - 25° 97.5° 72.8° - - -
6/21 1:30pm 262 8 G 15 95° 8% - - 24° 97.5° 72.8° - - -
6/21 1:20pm 240 6 G 14 97° 8% - - 25° 97.5° 72.8° - - -
6/21 1:10pm 234 8 G 14 96° 8% - - 25° 97.4° 72.8° - - -
6/21 1:00pm 264 7 G 14 96° 7% - - 23° 97.4° 72.8° - - -
6/21 12:50pm 242 8 G 14 97° 7% - - 23° 97.4° 72.8° - - -
6/21 12:40pm 261 7 G 15 96° 7% - - 23° 97.4° 72.8° - - -
6/21 12:30pm 285 6 G 13 96° 7% - - 23° 97.4° 72.8° - - -
6/21 12:20pm 274 5 G 14 96° 7% - - 21° 97.4° 72.8° - - -
6/21 12:10pm 220 4 G 12 97° 6% - - 18° 97.4° 72.8° - - -
6/21 12:00pm 213 6 G 12 96° 6% - - 19° 97.4° 72.8° - - -
6/21 11:50am 267 5 G 12 95° 6% - - 18° 96.2° 72.8° - - -
6/21 11:40am 244 6 G 14 95° 6% - - 17° 96.1° 72.8° - - -
6/21 11:30am 243 5 G 11 95° 6% - - 17° 96.1° 72.8° - - -
6/21 11:20am 268 5 G 13 95° 6% - - 16° 96.1° 72.8° - - -
6/21 11:10am 261 4 G 11 94° 6% - - 17° 96.1° 72.8° - - -
6/21 11:00am 270 5 G 11 94° 6% - - 17° 96.1° 72.8° - - -
6/21 10:50am 242 4 G 8 94° 6% - - 18° 96.1° 72.8° - - -
6/21 10:40am 249 6 G 13 94° 6% - - 18° 95.2° 72.8° - - -
6/21 10:30am 250 4 G 10 94° 7% - - 22° 95.2° 72.8° - - -
6/21 10:20am 240 4 G 9 93° 8% - - 23° 94.1° 72.8° - - -
6/21 10:10am 196 3 G 7 93° 9% - - 27° 94.1° 72.8° - - -
6/21 10:00am 203 4 G 7 92° 10% - - 28° 93.1° 72.8° - - -
6/21 9:50am 210 3 G 7 92° 11% - - 30° 92.3° 72.8° - - -
6/21 9:40am 224 2 G 7 91° 12% - - 30° 91.9° 72.8° - - -
6/21 9:30am 179 3 G 6 88° 13% - - 32° 89.3° 72.8° - - -
6/21 9:20am 182 2 G 5 88° 14% - - 32° 88.7° 72.8° - - -
6/21 9:10am 194 2 G 6 87° 14% - - 32° 87.9° 72.8° - - -
6/21 9:00am 215 2 G 4 87° 15% - - 33° 87° 72.8° - - -
6/21 8:50am 208 2 G 4 85° 15% - - 33° 85.8° 72.8° - - -
6/21 8:40am 175 2 G 5 83° 15% - - 31° 83.8° 72.8° - - -
6/21 8:30am 199 2 G 4 83° 18% - - 34° 83.4° 72.8° - - -
6/21 8:20am 176 1 G 3 81° 19% - - 35° 82.3° 72.8° - - -
6/21 8:10am 173 2 G 5 80° 18% - - 34° 82° 72.8° - - -
6/21 8:00am 181 1 G 3 80° 21% - - 36° 82° 72.8° - - -
6/21 7:50am 164 1 G 3 79° 20% - - 34° 82° 72.8° - - -
6/21 7:40am 188 1 G 3 79° 19% - - 33° 82° 72.8° - - -
6/21 7:30am 159 1 G 2 78° 18% - - 32° 82° 72.8° - - -
6/21 7:20am 152 1 G 4 78° 16% - - 27° 82° 72.8° - - -
6/21 7:10am 152 2 G 3 78° 15% - - 26° 82° 72.8° - - -
6/21 7:00am 122 2 G 3 77° 14% - - 25° 82° 72.8° - - -
6/21 6:50am 137 2 G 4 77° 14% - - 23° 82° 72.8° - - -
6/21 6:40am 113 1 G 4 77° 13% - - 22° 82° 72.8° - - -
6/21 6:30am 68 1 G 3 76° 13% - - 22° 82° 72.8° - - -
6/21 6:20am 37 1 G 5 76° 14% - - 22° 82° 72.8° - - -
6/21 6:10am 85 2 G 5 76° 14% - - 23° 82° 72.8° - - -
6/21 6:00am 68 1 G 3 75° 14% - - 23° 82° 72.8° - - -
6/21 5:50am 81 2 G 5 75° 15% - - 23° 82° 72.8° - - -
6/21 5:40am 85 2 G 6 75° 14% - - 23° 82° 72.8° - - -
6/21 5:30am 96 4 G 7 74° 15% - - 24° 82° 72.8° - - -
6/21 5:20am 116 3 G 5 75° 15% - - 24° 82° 72.8° - - -
6/21 5:10am 99 3 G 5 74° 14% - - 23° 82° 72.8° - - -
6/21 5:00am 93 2 G 4 74° 15% - - 23° 82° 72.8° - - -
6/21 4:50am 110 3 G 6 75° 14% - - 23° 82° 72.8° - - -
6/21 4:40am 228 2 G 5 76° 13% - - 23° 82° 72.8° - - -
6/21 4:30am 250 2 G 5 75° 15% - - 23° 82° 72.8° - - -
6/21 4:20am 103 1 G 4 74° 15% - - 23° 82° 72.8° - - -
6/21 4:10am 73 1 G 3 74° 15% - - 23° 82° 72.8° - - -
6/21 4:00am 153 1 G 4 76° 14% - - 23° 82° 72.8° - - -
6/21 3:50am 216 1 G 4 74° 16% - - 24° 82° 72.8° - - -
6/21 3:40am 182 0 G 3 74° 17% - - 26° 82° 73.1° - - -
6/21 3:30am 208 2 G 4 76° 14% - - 23° 82° 74.6° - - -
6/21 3:20am 92 3 G 6 78° 12% - - 22° 82° 76.6° - - -
6/21 3:10am 261 4 G 8 80° 11% - - 21° 82° 76.6° - - -
6/21 3:00am 278 6 G 8 81° 11% - - 21° 82° 76.6° - - -
6/21 2:50am 281 5 G 8 81° 11% - - 21° 82° 76.6° - - -
6/21 2:40am 273 3 G 7 79° 12% - - 22° 82° 76.6° - - -
6/21 2:30am 89 1 G 3 78° 13% - - 23° 82° 76.6° - - -
6/21 2:20am 130 1 G 3 77° 15% - - 26° 82° 76.6° - - -
6/21 2:10am 241 1 G 3 77° 15% - - 27° 82° 76.8° - - -
6/21 2:00am 191 1 G 2 78° 16% - - 28° 82° 77.5° - - -
6/21 1:50am 169 2 G 4 78° 17% - - 30° 82° 77.8° - - -
6/21 1:40am 240 2 G 4 80° 16% - - 29° 82° 77.8° - - -
6/21 1:30am 280 3 G 7 79° 16% - - 30° 82° 77.8° - - -
6/21 1:20am 196 1 G 4 79° 18% - - 32° 82° 77.8° - - -
6/21 1:10am 263 1 G 3 79° 18% - - 32° 82° 79° - - -
6/21 1:00am 272 1 G 4 80° 19% - - 35° 82° 79.5° - - -
6/21 12:50am 287 3 G 6 81° 21% - - 37° 82° 80.5° - - -
6/21 12:40am 278 3 G 6 81° 24% - - 40° 82° 80.5° - - -
6/21 12:30am 287 4 G 7 82° 25% - - 43° 82° 80.9° - - -
6/21 12:20am 292 4 G 7 82° 26% - - 43° 82° 80.9° - - -
6/21 12:10am 303 5 G 9 81° 25% - - 43° 82° 80.9° - - -
6/21 12:00am 292 4 G 6 81° 26% - - 43° 99.8° 71.5° - - -
6/20 11:50pm 286 4 G 7 81° 27% - - 44° 99.8° 71.5° - - -
6/20 11:40pm 280 4 G 5 81° 27% - - 44° 99.8° 71.5° - - -
6/20 11:30pm 277 2 G 6 80° 28% - - 44° 99.8° 71.5° - - -
6/20 11:20pm 273 2 G 4 80° 28% - - 44° 99.8° 71.5° - - -
6/20 11:10pm 285 3 G 4 80° 28% - - 44° 99.8° 71.5° - - -
6/20 11:00pm 291 4 G 7 81° 28% - - 45° 99.8° 71.5° - - -
6/20 10:50pm 287 3 G 5 81° 29% - - 45° 99.8° 71.5° - - -
6/20 10:40pm 282 4 G 6 81° 29% - - 46° 99.8° 71.5° - - -
6/20 10:30pm 286 4 G 7 82° 28% - - 46° 99.8° 71.5° - - -
6/20 10:20pm 291 4 G 6 81° 29% - - 46° 99.8° 71.5° - - -
6/20 10:10pm 289 4 G 6 82° 29% - - 46° 99.8° 71.5° - - -
6/20 10:00pm 304 5 G 7 82° 29% - - 46° 99.8° 71.5° - - -
6/20 9:50pm 299 4 G 6 82° 28% - - 46° 99.8° 71.5° - - -
6/20 9:40pm 304 1 G 4 80° 28% - - 44° 99.8° 71.5° - - -
6/20 9:30pm 31 0 G 2 79° 27% - - 43° 99.8° 71.5° - - -
6/20 9:20pm 325 1 G 4 80° 27% - - 44° 99.8° 71.5° - - -
6/20 9:10pm 293 4 G 6 81° 28% - - 45° 99.8° 71.5° - - -
6/20 9:00pm 296 5 G 7 81° 29% - - 46° 99.8° 71.5° - - -
6/20 8:50pm 293 5 G 7 82° 29% - - 46° 99.8° 71.5° - - -
6/20 8:40pm 307 6 G 8 82° 28% - - 46° 99.8° 71.5° - - -
6/20 8:30pm 309 6 G 7 82° 29% - - 46° 99.8° 71.5° - - -
6/20 8:20pm 310 5 G 6 82° 29% - - 47° 99.8° 71.5° - - -
6/20 8:10pm 304 4 G 6 82° 30% - - 48° 99.8° 71.5° - - -
6/20 8:00pm 290 4 G 6 83° 29% - - 48° 99.8° 71.5° - - -
6/20 7:50pm 286 5 G 9 84° 28% - - 48° 99.8° 71.5° - - -
6/20 7:40pm 301 5 G 9 85° 27% - - 47° 99.8° 71.5° - - -
6/20 7:30pm 300 5 G 8 86° 25% - - 47° 99.8° 71.5° - - -
6/20 7:20pm 305 5 G 9 87° 25% - - 46° 99.8° 71.5° - - -
6/20 7:10pm 293 4 G 8 88° 24% - - 46° 99.8° 71.5° - - -
6/20 7:00pm 275 6 G 10 88° 23% - - 46° 99.8° 71.5° - - -
6/20 6:50pm 275 6 G 10 89° 21% - - 44° 99.8° 71.5° - - -
6/20 6:40pm 284 6 G 10 90° 20% - - 44° 99.8° 71.5° - - -
6/20 6:30pm 276 6 G 10 90° 20% - - 44° 99.8° 71.5° - - -
6/20 6:20pm 274 6 G 11 91° 18% - - 42° 99.8° 71.5° - - -
6/20 6:10pm 271 6 G 11 92° 16% - - 40° 99.8° 71.5° - - -
6/20 6:00pm 266 7 G 12 92° 15% - - 38° 99.8° 71.5° - - -